Flight Track Log - Related Links

Times and Time Zones

All times are in EST time to prevent confusion due to time zone crossing. See the N830QS flight status page for this flight to view local times or setup timezone preferences in your user account.

Time Position Orientation Groundspeed Altitude Reporting Facility
EST Latitude Longitude Course Direction KTS MPH feet Rate Location/Type
Fri 03:24:26 PM 41.0333 -73.7000 294° West 194 223 2,000  Level New York TRACON
Fri 03:25:26 PM 41.0500 -73.7500 294° West 190 219 3,600 1,900 Climbing New York TRACON
Fri 03:26:26 PM 41.0500 -73.8167 270° West 209 241 5,800 2,000 Climbing New York TRACON
Fri 03:27:26 PM 41.0000 -73.8500 207° Southwest 268 308 7,600 2,150 Climbing New York TRACON
Fri 03:28:26 PM 40.9167 -73.8500 180° South 282 325 10,100 2,628 Climbing New York TRACON
Fri 03:29:27 PM 40.8833 -73.9167 237° Southwest 251 289 12,900 2,400 Climbing New York TRACON
Fri 03:30:26 PM 40.8500 -73.9833 237° Southwest 253 291 14,900 1,059 Climbing New York TRACON
Fri 03:31:26 PM 40.8167 -74.0833 246° West 273 314 15,000 50 Climbing New York TRACON
Fri 03:32:26 PM 40.7833 -74.1833 246° West 283 326 15,000 615 Level New York TRACON
Fri 03:34:41 PM 40.7275 -74.3775 249° West 272 313 17,000 1,108 Climbing New York Center
Fri 03:35:41 PM 40.6847 -74.4792 241° Southwest 278 320 18,600 2,400 Climbing New York Center
Fri 03:36:41 PM 40.6486 -74.5675 242° Southwest 283 326 21,800 2,200 Climbing New York Center
Fri 03:37:41 PM 40.6081 -74.6581 239° Southwest 283 326 23,000 600 Climbing New York Center
Fri 03:38:41 PM 40.5772 -74.7686 250° West 301 346 23,000  Level New York Center
Fri 03:39:41 PM 40.5506 -74.8817 253° West 323 372 23,000 1,140 Level New York Center
Fri 03:40:42 PM 40.5194 -74.9917 250° West 328 377 25,300 2,500 Climbing New York Center
Fri 03:41:41 PM 40.4442 -75.0553 213° Southwest 306 352 28,000 2,471 Climbing New York Center
Fri 03:42:41 PM 40.3631 -75.1075 206° Southwest 317 365 30,200 2,500 Climbing New York Center
Fri 03:43:41 PM 40.3083 -75.1831 226° Southwest 311 358 33,000 2,350 Climbing New York Center
Fri 03:44:41 PM 40.2719 -75.2622 239° Southwest 280 322 34,900 1,000 Climbing New York Center
Fri 03:45:41 PM 40.2328 -75.3547 241° Southwest 280 322 35,000 50 Climbing New York Center
Fri 03:46:41 PM 40.1975 -75.4586 246° West 294 338 35,000 400 Level New York Center
Fri 03:47:41 PM 40.1517 -75.5614 240° Southwest 315 362 35,800 2,050 Climbing New York Center
Fri 03:48:41 PM 40.1047 -75.6422 233° Southwest 315 362 39,100 2,100 Climbing New York Center
Fri 03:49:41 PM 40.0619 -75.7153 233° Southwest 287 330 40,000 450 Climbing New York Center
Fri 03:50:41 PM 40.0106 -75.7956 230° Southwest 282 325 40,000  Level New York Center
Fri 03:51:41 PM 39.9611 -75.8814 233° Southwest 287 330 40,000  Level New York Center
Fri 03:52:41 PM 39.9050 -75.9719 231° Southwest 308 354 40,000  Level New York Center
Fri 03:53:41 PM 39.8508 -76.0628 232° Southwest 319 367 40,000  Level New York Center
Fri 03:54:41 PM 39.7947 -76.1558 232° Southwest 330 380 40,000  Level New York Center
Fri 03:55:41 PM 39.7408 -76.2381 230° Southwest 330 380 40,000  Level New York Center
Fri 03:58:08 PM 39.6064 -76.4589 232° Southwest 347 399 40,000  Level Washington Center
Fri 03:59:09 PM 39.5472 -76.5497 230° Southwest 341 392 40,000  Level Washington Center
Fri 04:00:10 PM 39.4925 -76.6403 232° Southwest 347 399 40,000  Level Washington Center
Fri 04:01:07 PM 39.4375 -76.7283 231° Southwest 337 388 40,000  Level Washington Center
Fri 04:02:08 PM 39.3825 -76.8158 231° Southwest 337 388 40,000  Level Washington Center
Fri 04:03:08 PM 39.3294 -76.9036 232° Southwest 337 388 40,000  Level Washington Center
Fri 04:04:08 PM 39.2742 -76.9883 230° Southwest 337 388 40,000  Level Washington Center
Fri 04:05:09 PM 39.2189 -77.0758 231° Southwest 331 381 40,000  Level Washington Center
Fri 04:06:10 PM 39.1658 -77.1631 232° Southwest 319 367 40,000  Level Washington Center
Fri 04:07:07 PM 39.1125 -77.2475 231° Southwest 319 367 40,000  Level Washington Center
Fri 04:08:09 PM 39.0572 -77.3344 231° Southwest 319 367 40,000  Level Washington Center
Fri 04:09:09 PM 39.0039 -77.4186 231° Southwest 319 367 40,000  Level Washington Center
Fri 04:10:10 PM 38.9483 -77.5028 230° Southwest 319 367 40,000  Level Washington Center
Fri 04:11:07 PM 38.8864 -77.5972 230° Southwest 319 367 40,000  Level Washington Center
Fri 04:12:08 PM 38.8392 -77.6758 232° Southwest 319 367 40,000  Level Washington Center
Fri 04:13:08 PM 38.7875 -77.7569 231° Southwest 314 361 40,000  Level Washington Center
Fri 04:14:09 PM 38.7233 -77.8533 230° Southwest 332 382 40,000  Level Washington Center
Fri 04:15:09 PM 38.6694 -77.9369 230° Southwest 321 369 40,000  Level Washington Center
Fri 04:16:07 PM 38.6178 -78.0203 232° Southwest 314 361 40,000  Level Washington Center
Fri 04:17:08 PM 38.5661 -78.1036 232° Southwest 314 361 40,000  Level Washington Center
Fri 04:18:08 PM 38.5122 -78.1894 231° Southwest 314 361 40,000  Level Washington Center
Fri 04:19:09 PM 38.4561 -78.2722 229° Southwest 314 361 40,000  Level Washington Center
Fri 04:20:09 PM 38.4042 -78.3550 231° Southwest 314 361 40,000  Level Washington Center
Fri 04:21:10 PM 38.3500 -78.4406 231° Southwest 314 361 40,000  Level Washington Center
Fri 04:22:07 PM 38.2981 -78.5231 231° Southwest 314 361 40,000  Level Washington Center
Fri 04:23:07 PM 38.2500 -78.6139 236° Southwest 309 356 40,000  Level Washington Center
Fri 04:24:08 PM 38.1936 -78.6933 228° Southwest 309 356 40,000  Level Washington Center
Fri 04:25:08 PM 38.1372 -78.7808 231° Southwest 321 369 40,000  Level Washington Center
Fri 04:26:09 PM 38.0872 -78.8578 230° Southwest 321 369 40,000  Level Washington Center
Fri 04:27:09 PM 38.0306 -78.9425 230° Southwest 321 369 40,000  Level Washington Center
Fri 04:28:10 PM 37.9761 -79.0269 231° Southwest 321 369 40,000  Level Washington Center
Fri 04:29:07 PM 37.9192 -79.1139 230° Southwest 321 369 40,000  Level Washington Center
Fri 04:30:08 PM 37.8581 -79.2056 230° Southwest 321 369 40,000  Level Washington Center
Fri 04:31:08 PM 37.8014 -79.2922 230° Southwest 321 369 40,000  Level Washington Center
Fri 04:32:07 PM 37.7464 -79.3764 230° Southwest 321 369 40,000  Level Washington Center
Fri 04:33:08 PM 37.6856 -79.4597 227° Southwest 321 369 40,000  Level Washington Center
Fri 04:34:08 PM 37.6303 -79.5489 232° Southwest 321 369 40,000  Level Washington Center
Fri 04:35:09 PM 37.5756 -79.6325 230° Southwest 321 369 40,000  Level Washington Center
Fri 04:36:08 PM 37.5164 -79.7158 228° Southwest 321 369 40,000  Level Washington Center
Fri 04:37:08 PM 37.4592 -79.8017 230° Southwest 321 369 40,000  Level Washington Center
Fri 04:38:09 PM 37.4014 -79.8950 232° Southwest 336 387 40,000  Level Washington Center
Fri 04:40:15 PM 37.2767 -80.0719 228° Southwest 317 365 40,000  Level Atlanta Center
Fri 04:41:15 PM 37.2247 -80.1500 230° Southwest 320 368 40,000  Level Atlanta Center
Fri 04:42:15 PM 37.1669 -80.2311 228° Southwest 320 368 40,000  Level Atlanta Center
Fri 04:43:15 PM 37.1092 -80.3197 231° Southwest 320 368 40,000  Level Atlanta Center
Fri 04:44:15 PM 37.0511 -80.4006 228° Southwest 315 362 40,000  Level Atlanta Center
Fri 04:45:15 PM 36.9872 -80.4944 230° Southwest 320 368 40,000  Level Atlanta Center
Fri 04:46:15 PM 36.9269 -80.5725 226° Southwest 320 368 40,000  Level Atlanta Center
Fri 04:47:15 PM 36.8583 -80.6533 223° Southwest 325 374 40,000  Level Atlanta Center
Fri 04:48:15 PM 36.7956 -80.7283 224° Southwest 325 374 40,000  Level Atlanta Center
Fri 04:49:15 PM 36.7433 -80.7953 226° Southwest 320 368 40,000  Level Atlanta Center
Fri 04:50:15 PM 36.6786 -80.8731 224° Southwest 313 360 40,000  Level Atlanta Center
Fri 04:51:15 PM 36.6158 -80.9506 225° Southwest 318 366 40,000  Level Atlanta Center
Fri 04:52:15 PM 36.5511 -81.0281 224° Southwest 318 366 40,000  Level Atlanta Center
Fri 04:53:15 PM 36.4758 -81.1108 221° Southwest 324 373 40,000  Level Atlanta Center
Fri 04:54:15 PM 36.3961 -81.1731 212° Southwest 335 386 40,000  Level Atlanta Center
Fri 04:55:15 PM 36.3161 -81.2353 212° Southwest 341 392 40,000  Level Atlanta Center
Fri 04:56:15 PM 36.2383 -81.2997 214° Southwest 341 392 40,000  Level Atlanta Center
Fri 04:57:15 PM 36.1625 -81.3614 213° Southwest 341 392 40,000  Level Atlanta Center
Fri 04:58:15 PM 36.0828 -81.4283 214° Southwest 341 392 40,000  Level Atlanta Center
Fri 04:59:15 PM 36.0069 -81.4925 214° Southwest 341 392 40,000  Level Atlanta Center
Fri 05:00:15 PM 35.9289 -81.5564 214° Southwest 341 392 40,000  Level Atlanta Center
Fri 05:01:15 PM 35.8531 -81.6228 215° Southwest 336 387 40,000  Level Atlanta Center
Fri 05:02:15 PM 35.7878 -81.7042 225° Southwest 336 387 40,000  Level Atlanta Center
Fri 05:03:15 PM 35.7267 -81.7825 226° Southwest 331 381 40,000 -550 Level Atlanta Center
Fri 05:04:15 PM 35.6614 -81.8636 225° Southwest 331 381 38,900 -1,250 Descending Atlanta Center
Fri 05:05:15 PM 35.6003 -81.9444 227° Southwest 326 375 37,500 -950 Descending Atlanta Center
Fri 05:06:15 PM 35.5350 -82.0278 226° Southwest 326 375 37,000 -800 Descending Atlanta Center
Fri 05:07:15 PM 35.4714 -82.1083 226° Southwest 326 375 35,900 -1,000 Descending Atlanta Center
Fri 05:08:15 PM 35.4061 -82.1939 227° Southwest 331 381 35,000 -1,100 Descending Atlanta Center
Fri 05:09:15 PM 35.3406 -82.2769 226° Southwest 331 381 33,700 -1,400 Descending Atlanta Center
Fri 05:10:15 PM 35.2728 -82.3622 226° Southwest 336 387 32,200 -1,500 Descending Atlanta Center
Fri 05:11:15 PM 35.2053 -82.4500 227° Southwest 341 392 30,700 -1,450 Descending Atlanta Center
Fri 05:12:15 PM 35.1353 -82.5353 225° Southwest 351 404 29,300 -1,350 Descending Atlanta Center
Fri 05:13:15 PM 35.0694 -82.6178 226° Southwest 351 404 28,000 -1,300 Descending Atlanta Center
Fri 05:14:15 PM 35.0078 -82.6947 226° Southwest 351 404 26,700 -1,600 Descending Atlanta Center
Fri 05:15:15 PM 34.9397 -82.7794 226° Southwest 359 413 24,800 -1,950 Descending Atlanta Center
Fri 05:16:15 PM 34.8719 -82.8667 227° Southwest 353 406 22,800 -1,950 Descending Atlanta Center
Fri 05:17:15 PM 34.7953 -82.9411 219° Southwest 353 406 20,900 -2,000 Descending Atlanta Center
Fri 05:18:15 PM 34.7356 -83.0253 229° Southwest 338 389 18,800 -1,950 Descending Atlanta Center
Fri 05:19:15 PM 34.6714 -83.1067 226° Southwest 327 376 17,000 -1,900 Descending Atlanta Center
Fri 05:20:15 PM 34.6072 -83.1833 225° Southwest 328 377 15,000 -2,000 Descending Atlanta Center
Fri 05:21:15 PM 34.5472 -83.2619 227° Southwest 323 372 13,000 -2,050 Descending Atlanta Center
Fri 05:22:15 PM 34.4872 -83.3383 226° Southwest 313 360 10,900 -1,950 Descending Atlanta Center
Fri 05:23:15 PM 34.4417 -83.3964 226° Southwest 285 328 9,100 -1,900 Descending Atlanta Center
Fri 05:24:15 PM 34.3856 -83.4597 223° Southwest 265 305 7,100 -1,050 Descending Atlanta Center
Fri 05:25:15 PM 34.3336 -83.5106 219° Southwest 251 289 7,000 -550 Descending Atlanta Center
Fri 05:26:15 PM 34.2817 -83.5586 217° Southwest 245 282 6,000 -1,100 Descending Atlanta Center
Fri 05:27:15 PM 34.2256 -83.6017 212° Southwest 245 282 4,800 -1,000 Descending Atlanta Center
Fri 05:28:15 PM 34.1756 -83.6394 212° Southwest 231 266 4,000 -400 Descending Atlanta Center
Fri 05:29:15 PM 34.1319 -83.6750 214° Southwest 207 238 4,000  Level Atlanta Center
Fri 05:30:15 PM 34.0881 -83.7103 214° Southwest 191 220 4,000 -36 Level Atlanta Center
Fri 05:32:00 PM 34.0500 -83.8000 243° Southwest 161 185 3,900 -327 Descending Atlanta TRACON
Fri 05:33:00 PM 34.0333 -83.8333 239° Southwest 141 162 3,100 -700 Descending Atlanta TRACON
Fri 05:34:00 PM 34.0167 -83.8667 239° Southwest 107 123 2,500 -600 Descending Atlanta TRACON
Fri 05:35:00 PM 34.0000 -83.9167 248° West 131 151 1,900 -600 Descending Atlanta TRACON
Fri 05:36:00 PM 33.9667 -83.9500 220° Southwest  Level FlightAware Approximate

Login

Don't have an account? Register now (free) for customized features, flight alerts, and more!